Terminal Aerodrome Forecast
Issued by NWS Shreveport, LA

Home | Current Version | Previous Version | Text Only | Print | Product List | Glossary On
Versions: 1 2 3 4 5 6 7 8 9 10 11 12 13 14 15 16 17 18 19 20 21 22 23 24
000
FTUS44 KSHV 291723
TAFTXK
TAF
KTXK 291723Z 2918/3018 VRB05KT P6SM VCTS BKN040CB BKN150 BKN250
      TEMPO 2920/2924 3SM -TSRA BR BKN040CB
     FM300200 VRB03KT P6SM SCT050 SCT150 SCT250
      TEMPO 3010/3014 3SM BR
     FM301500 15006KT P6SM SCT030 SCT250=

USA.gov is the U.S. government's official web portal to all federal, state and local government web resources and services.